sensor_id;sensor_type;location;lat;lon;timestamp;temperature;humidity
61201;DHT22;47065;52.898;6.992;2023-07-31T00:00:13;15.50;99.90
61201;DHT22;47065;52.898;6.992;2023-07-31T00:02:39;15.50;99.90
61201;DHT22;47065;52.898;6.992;2023-07-31T00:05:04;15.40;99.90
61201;DHT22;47065;52.898;6.992;2023-07-31T00:07:31;15.40;99.90
61201;DHT22;47065;52.898;6.992;2023-07-31T00:09:57;15.30;99.90
61201;DHT22;47065;52.898;6.992;2023-07-31T00:12:23;15.30;99.90
61201;DHT22;47065;52.898;6.992;2023-07-31T00:14:49;15.20;99.90
61201;DHT22;47065;52.898;6.992;2023-07-31T00:17:14;15.20;99.90
61201;DHT22;47065;52.898;6.992;2023-07-31T00:19:40;15.10;99.90
61201;DHT22;47065;52.898;6.992;2023-07-31T00:22:06;15.10;99.90
61201;DHT22;47065;52.898;6.992;2023-07-31T00:24:31;15.10;99.90
61201;DHT22;47065;52.898;6.992;2023-07-31T00:26:57;15.00;99.90
61201;DHT22;47065;52.898;6.992;2023-07-31T00:29:23;15.00;99.90
61201;DHT22;47065;52.898;6.992;2023-07-31T00:31:48;15.00;99.90
61201;DHT22;47065;52.898;6.992;2023-07-31T00:34:14;15.00;99.90
61201;DHT22;47065;52.898;6.992;2023-07-31T00:36:39;15.00;99.90
61201;DHT22;47065;52.898;6.992;2023-07-31T00:39:05;15.00;99.90
61201;DHT22;47065;52.898;6.992;2023-07-31T00:41:31;15.00;99.90
61201;DHT22;47065;52.898;6.992;2023-07-31T00:43:57;15.00;99.90
61201;DHT22;47065;52.898;6.992;2023-07-31T00:46:22;15.00;99.90
61201;DHT22;47065;52.898;6.992;2023-07-31T00:48:49;15.00;99.90
61201;DHT22;47065;52.898;6.992;2023-07-31T00:51:15;14.90;99.90
61201;DHT22;47065;52.898;6.992;2023-07-31T00:53:41;14.90;99.90
61201;DHT22;47065;52.898;6.992;2023-07-31T00:56:08;14.90;99.90
61201;DHT22;47065;52.898;6.992;2023-07-31T00:58:34;14.90;99.90
61201;DHT22;47065;52.898;6.992;2023-07-31T01:00:59;14.90;99.90
61201;DHT22;47065;52.898;6.992;2023-07-31T01:03:25;14.90;99.90
61201;DHT22;47065;52.898;6.992;2023-07-31T01:06:04;14.90;99.90
61201;DHT22;47065;52.898;6.992;2023-07-31T01:08:41;14.90;99.90
61201;DHT22;47065;52.898;6.992;2023-07-31T01:11:17;14.90;99.90
61201;DHT22;47065;52.898;6.992;2023-07-31T01:13:45;14.90;99.90
61201;DHT22;47065;52.898;6.992;2023-07-31T01:16:11;14.90;99.90
61201;DHT22;47065;52.898;6.992;2023-07-31T01:18:37;14.90;99.90
61201;DHT22;47065;52.898;6.992;2023-07-31T01:27:04;14.90;99.90
61201;DHT22;47065;52.898;6.992;2023-07-31T01:29:42;14.90;99.90
61201;DHT22;47065;52.898;6.992;2023-07-31T01:32:09;14.90;99.90
61201;DHT22;47065;52.898;6.992;2023-07-31T01:34:36;14.90;99.90
61201;DHT22;47065;52.898;6.992;2023-07-31T01:37:03;14.90;99.90
61201;DHT22;47065;52.898;6.992;2023-07-31T01:39:29;14.80;99.90
61201;DHT22;47065;52.898;6.992;2023-07-31T01:41:54;14.80;99.90
61201;DHT22;47065;52.898;6.992;2023-07-31T01:44:20;14.80;99.90
61201;DHT22;47065;52.898;6.992;2023-07-31T01:46:46;14.80;99.90
61201;DHT22;47065;52.898;6.992;2023-07-31T01:49:11;14.80;99.90
61201;DHT22;47065;52.898;6.992;2023-07-31T01:51:37;14.80;99.90
61201;DHT22;47065;52.898;6.992;2023-07-31T01:54:03;14.80;99.90
61201;DHT22;47065;52.898;6.992;2023-07-31T01:56:28;14.80;99.90
61201;DHT22;47065;52.898;6.992;2023-07-31T01:58:54;14.80;99.90
61201;DHT22;47065;52.898;6.992;2023-07-31T02:01:20;14.80;99.90
61201;DHT22;47065;52.898;6.992;2023-07-31T02:03:45;14.80;99.90
61201;DHT22;47065;52.898;6.992;2023-07-31T02:06:11;14.80;99.90
61201;DHT22;47065;52.898;6.992;2023-07-31T02:08:37;14.80;99.90
61201;DHT22;47065;52.898;6.992;2023-07-31T02:11:03;14.80;99.90
61201;DHT22;47065;52.898;6.992;2023-07-31T02:13:28;14.80;99.90
61201;DHT22;47065;52.898;6.992;2023-07-31T02:15:54;14.80;99.90
61201;DHT22;47065;52.898;6.992;2023-07-31T02:18:20;14.80;99.90
61201;DHT22;47065;52.898;6.992;2023-07-31T02:20:52;14.80;99.90
61201;DHT22;47065;52.898;6.992;2023-07-31T02:23:18;14.80;99.90
61201;DHT22;47065;52.898;6.992;2023-07-31T02:25:44;14.80;99.90
61201;DHT22;47065;52.898;6.992;2023-07-31T02:28:10;14.80;99.90
61201;DHT22;47065;52.898;6.992;2023-07-31T02:30:36;14.80;99.90
61201;DHT22;47065;52.898;6.992;2023-07-31T02:33:02;14.80;99.90
61201;DHT22;47065;52.898;6.992;2023-07-31T02:35:27;14.80;99.90
61201;DHT22;47065;52.898;6.992;2023-07-31T02:37:53;14.80;99.90
61201;DHT22;47065;52.898;6.992;2023-07-31T02:40:19;14.90;99.90
61201;DHT22;47065;52.898;6.992;2023-07-31T02:42:44;14.90;99.90
61201;DHT22;47065;52.898;6.992;2023-07-31T02:45:10;14.90;99.90
61201;DHT22;47065;52.898;6.992;2023-07-31T02:47:36;14.90;99.90
61201;DHT22;47065;52.898;6.992;2023-07-31T02:50:05;14.90;99.90
61201;DHT22;47065;52.898;6.992;2023-07-31T02:52:31;14.90;99.90
61201;DHT22;47065;52.898;6.992;2023-07-31T02:54:57;14.90;99.90
61201;DHT22;47065;52.898;6.992;2023-07-31T02:57:23;14.90;99.90
61201;DHT22;47065;52.898;6.992;2023-07-31T02:59:48;14.90;99.90
61201;DHT22;47065;52.898;6.992;2023-07-31T03:02:14;14.90;99.90
61201;DHT22;47065;52.898;6.992;2023-07-31T03:04:39;14.90;99.90
61201;DHT22;47065;52.898;6.992;2023-07-31T03:07:05;14.90;99.90
61201;DHT22;47065;52.898;6.992;2023-07-31T03:09:31;15.00;99.90
61201;DHT22;47065;52.898;6.992;2023-07-31T03:11:57;15.00;99.90
61201;DHT22;47065;52.898;6.992;2023-07-31T03:14:22;15.00;99.90
61201;DHT22;47065;52.898;6.992;2023-07-31T03:16:48;15.00;99.90
61201;DHT22;47065;52.898;6.992;2023-07-31T03:19:14;15.00;99.90
61201;DHT22;47065;52.898;6.992;2023-07-31T03:21:40;15.00;99.90
61201;DHT22;47065;52.898;6.992;2023-07-31T03:24:06;15.00;99.90
61201;DHT22;47065;52.898;6.992;2023-07-31T03:26:32;15.00;99.90
61201;DHT22;47065;52.898;6.992;2023-07-31T03:28:58;15.10;99.90
61201;DHT22;47065;52.898;6.992;2023-07-31T03:31:23;15.10;99.90
61201;DHT22;47065;52.898;6.992;2023-07-31T03:33:49;15.00;99.90
61201;DHT22;47065;52.898;6.992;2023-07-31T03:36:15;15.10;99.90
61201;DHT22;47065;52.898;6.992;2023-07-31T03:38:40;15.10;99.90
61201;DHT22;47065;52.898;6.992;2023-07-31T03:41:06;15.10;99.90
61201;DHT22;47065;52.898;6.992;2023-07-31T03:43:32;15.10;99.90
61201;DHT22;47065;52.898;6.992;2023-07-31T03:46:00;15.10;99.90
61201;DHT22;47065;52.898;6.992;2023-07-31T03:48:26;15.10;99.90
61201;DHT22;47065;52.898;6.992;2023-07-31T03:50:52;15.20;99.90
61201;DHT22;47065;52.898;6.992;2023-07-31T03:53:18;15.20;99.90
61201;DHT22;47065;52.898;6.992;2023-07-31T03:55:44;15.20;99.90
61201;DHT22;47065;52.898;6.992;2023-07-31T03:58:09;15.20;99.90
61201;DHT22;47065;52.898;6.992;2023-07-31T04:00:35;15.20;99.90
61201;DHT22;47065;52.898;6.992;2023-07-31T04:03:01;15.20;99.90
61201;DHT22;47065;52.898;6.992;2023-07-31T04:05:26;15.30;99.90
61201;DHT22;47065;52.898;6.992;2023-07-31T04:07:52;15.30;99.90
61201;DHT22;47065;52.898;6.992;2023-07-31T04:10:17;15.30;99.90
61201;DHT22;47065;52.898;6.992;2023-07-31T04:12:43;15.30;99.90
61201;DHT22;47065;52.898;6.992;2023-07-31T04:15:09;15.30;99.90
61201;DHT22;47065;52.898;6.992;2023-07-31T04:17:35;15.40;99.90
61201;DHT22;47065;52.898;6.992;2023-07-31T04:20:00;15.40;99.90
61201;DHT22;47065;52.898;6.992;2023-07-31T04:22:26;15.40;99.90
61201;DHT22;47065;52.898;6.992;2023-07-31T04:24:52;15.40;99.90
61201;DHT22;47065;52.898;6.992;2023-07-31T04:27:18;15.40;99.90
61201;DHT22;47065;52.898;6.992;2023-07-31T04:29:43;15.50;99.90
61201;DHT22;47065;52.898;6.992;2023-07-31T04:32:11;15.50;99.90
61201;DHT22;47065;52.898;6.992;2023-07-31T04:34:37;15.50;99.90
61201;DHT22;47065;52.898;6.992;2023-07-31T04:37:03;15.50;99.90
61201;DHT22;47065;52.898;6.992;2023-07-31T04:39:28;15.50;99.90
61201;DHT22;47065;52.898;6.992;2023-07-31T04:41:54;15.50;99.90
61201;DHT22;47065;52.898;6.992;2023-07-31T04:44:20;15.50;99.90
61201;DHT22;47065;52.898;6.992;2023-07-31T04:46:45;15.50;99.90
61201;DHT22;47065;52.898;6.992;2023-07-31T04:49:11;15.60;99.90
61201;DHT22;47065;52.898;6.992;2023-07-31T04:51:37;15.60;99.90
61201;DHT22;47065;52.898;6.992;2023-07-31T04:54:03;15.60;99.90
61201;DHT22;47065;52.898;6.992;2023-07-31T04:56:28;15.60;99.90
61201;DHT22;47065;52.898;6.992;2023-07-31T04:58:54;15.60;99.90
61201;DHT22;47065;52.898;6.992;2023-07-31T05:01:20;15.60;99.90
61201;DHT22;47065;52.898;6.992;2023-07-31T05:03:46;15.60;99.90
61201;DHT22;47065;52.898;6.992;2023-07-31T05:06:12;15.60;99.90
61201;DHT22;47065;52.898;6.992;2023-07-31T05:08:38;15.60;99.90
61201;DHT22;47065;52.898;6.992;2023-07-31T05:11:04;15.60;99.90
61201;DHT22;47065;52.898;6.992;2023-07-31T05:13:30;15.70;99.90
61201;DHT22;47065;52.898;6.992;2023-07-31T05:15:56;15.70;99.90
61201;DHT22;47065;52.898;6.992;2023-07-31T05:18:21;15.70;99.90
61201;DHT22;47065;52.898;6.992;2023-07-31T05:20:47;15.70;99.90
61201;DHT22;47065;52.898;6.992;2023-07-31T05:23:12;15.70;99.90
61201;DHT22;47065;52.898;6.992;2023-07-31T05:25:38;15.80;99.90
61201;DHT22;47065;52.898;6.992;2023-07-31T05:28:04;15.80;99.90
61201;DHT22;47065;52.898;6.992;2023-07-31T05:30:30;15.80;99.90
61201;DHT22;47065;52.898;6.992;2023-07-31T05:32:56;15.80;99.90
61201;DHT22;47065;52.898;6.992;2023-07-31T05:35:22;15.80;99.90
61201;DHT22;47065;52.898;6.992;2023-07-31T05:37:47;15.80;99.90
61201;DHT22;47065;52.898;6.992;2023-07-31T05:40:14;15.80;99.90
61201;DHT22;47065;52.898;6.992;2023-07-31T05:42:40;15.90;99.90
61201;DHT22;47065;52.898;6.992;2023-07-31T05:45:07;15.90;99.90
61201;DHT22;47065;52.898;6.992;2023-07-31T05:47:33;15.90;99.90
61201;DHT22;47065;52.898;6.992;2023-07-31T05:49:59;16.00;99.90
61201;DHT22;47065;52.898;6.992;2023-07-31T05:52:24;16.00;99.90
61201;DHT22;47065;52.898;6.992;2023-07-31T05:54:50;16.00;99.90
61201;DHT22;47065;52.898;6.992;2023-07-31T05:57:16;16.00;99.90
61201;DHT22;47065;52.898;6.992;2023-07-31T05:59:42;16.10;99.90
61201;DHT22;47065;52.898;6.992;2023-07-31T06:02:08;16.10;99.90
61201;DHT22;47065;52.898;6.992;2023-07-31T06:04:34;16.00;99.90
61201;DHT22;47065;52.898;6.992;2023-07-31T06:07:00;16.10;99.90
61201;DHT22;47065;52.898;6.992;2023-07-31T06:09:26;16.10;99.90
61201;DHT22;47065;52.898;6.992;2023-07-31T06:11:52;16.10;99.90
61201;DHT22;47065;52.898;6.992;2023-07-31T06:14:18;16.10;99.90
61201;DHT22;47065;52.898;6.992;2023-07-31T06:16:46;16.10;99.90
61201;DHT22;47065;52.898;6.992;2023-07-31T06:19:12;16.10;99.90
61201;DHT22;47065;52.898;6.992;2023-07-31T06:21:38;16.10;99.90
61201;DHT22;47065;52.898;6.992;2023-07-31T06:24:05;16.10;99.90
61201;DHT22;47065;52.898;6.992;2023-07-31T06:26:31;16.10;99.90
61201;DHT22;47065;52.898;6.992;2023-07-31T06:28:56;16.20;99.90
61201;DHT22;47065;52.898;6.992;2023-07-31T06:31:22;16.20;99.90
61201;DHT22;47065;52.898;6.992;2023-07-31T06:33:52;16.20;99.90
61201;DHT22;47065;52.898;6.992;2023-07-31T06:36:18;16.20;99.90
61201;DHT22;47065;52.898;6.992;2023-07-31T06:38:43;16.20;99.90
61201;DHT22;47065;52.898;6.992;2023-07-31T06:41:09;16.20;99.90
61201;DHT22;47065;52.898;6.992;2023-07-31T06:43:36;16.20;99.90
61201;DHT22;47065;52.898;6.992;2023-07-31T06:46:08;16.20;99.90
61201;DHT22;47065;52.898;6.992;2023-07-31T06:48:34;16.30;99.90
61201;DHT22;47065;52.898;6.992;2023-07-31T06:51:03;16.30;99.90
61201;DHT22;47065;52.898;6.992;2023-07-31T06:53:28;16.30;99.90
61201;DHT22;47065;52.898;6.992;2023-07-31T06:55:54;16.30;99.90
61201;DHT22;47065;52.898;6.992;2023-07-31T06:58:20;16.30;99.90
61201;DHT22;47065;52.898;6.992;2023-07-31T07:00:46;16.30;99.90
61201;DHT22;47065;52.898;6.992;2023-07-31T07:03:11;16.30;99.90
61201;DHT22;47065;52.898;6.992;2023-07-31T07:05:40;16.30;99.90
61201;DHT22;47065;52.898;6.992;2023-07-31T07:08:05;16.30;99.90
61201;DHT22;47065;52.898;6.992;2023-07-31T07:10:31;16.30;99.90
61201;DHT22;47065;52.898;6.992;2023-07-31T07:12:57;16.30;99.90
61201;DHT22;47065;52.898;6.992;2023-07-31T07:15:22;16.30;99.90
61201;DHT22;47065;52.898;6.992;2023-07-31T07:17:48;16.30;99.90
61201;DHT22;47065;52.898;6.992;2023-07-31T07:20:14;16.30;99.90
61201;DHT22;47065;52.898;6.992;2023-07-31T07:22:39;16.30;99.90
61201;DHT22;47065;52.898;6.992;2023-07-31T07:25:06;16.30;99.90
61201;DHT22;47065;52.898;6.992;2023-07-31T07:27:33;16.30;99.90
61201;DHT22;47065;52.898;6.992;2023-07-31T07:29:58;16.30;99.90
61201;DHT22;47065;52.898;6.992;2023-07-31T07:32:24;16.30;99.90
61201;DHT22;47065;52.898;6.992;2023-07-31T07:34:50;16.30;99.90
61201;DHT22;47065;52.898;6.992;2023-07-31T07:37:15;16.30;99.90
61201;DHT22;47065;52.898;6.992;2023-07-31T07:39:41;16.30;99.90
61201;DHT22;47065;52.898;6.992;2023-07-31T07:42:07;16.30;99.90
61201;DHT22;47065;52.898;6.992;2023-07-31T07:44:33;16.30;99.90
61201;DHT22;47065;52.898;6.992;2023-07-31T07:46:58;16.30;99.90
61201;DHT22;47065;52.898;6.992;2023-07-31T07:49:24;16.30;99.90
61201;DHT22;47065;52.898;6.992;2023-07-31T07:51:50;16.30;99.90
61201;DHT22;47065;52.898;6.992;2023-07-31T07:54:16;16.40;99.90
61201;DHT22;47065;52.898;6.992;2023-07-31T07:56:46;16.40;99.90
61201;DHT22;47065;52.898;6.992;2023-07-31T07:59:12;16.40;99.90
61201;DHT22;47065;52.898;6.992;2023-07-31T08:01:37;16.40;99.90
61201;DHT22;47065;52.898;6.992;2023-07-31T08:04:03;16.40;99.90
61201;DHT22;47065;52.898;6.992;2023-07-31T08:06:29;16.40;99.90
61201;DHT22;47065;52.898;6.992;2023-07-31T08:08:55;16.40;99.90
61201;DHT22;47065;52.898;6.992;2023-07-31T08:11:21;16.30;99.90
61201;DHT22;47065;52.898;6.992;2023-07-31T08:13:49;16.40;99.90
61201;DHT22;47065;52.898;6.992;2023-07-31T08:16:15;16.40;99.90
61201;DHT22;47065;52.898;6.992;2023-07-31T08:18:40;16.40;99.90
61201;DHT22;47065;52.898;6.992;2023-07-31T08:21:08;16.40;99.90
61201;DHT22;47065;52.898;6.992;2023-07-31T08:23:33;16.40;99.90
61201;DHT22;47065;52.898;6.992;2023-07-31T08:25:59;16.40;99.90
61201;DHT22;47065;52.898;6.992;2023-07-31T08:28:25;16.40;99.90
61201;DHT22;47065;52.898;6.992;2023-07-31T08:30:51;16.50;99.90
61201;DHT22;47065;52.898;6.992;2023-07-31T08:33:16;16.50;99.90
61201;DHT22;47065;52.898;6.992;2023-07-31T08:35:42;16.50;99.90
61201;DHT22;47065;52.898;6.992;2023-07-31T08:38:07;16.60;99.90
61201;DHT22;47065;52.898;6.992;2023-07-31T08:40:36;16.50;99.90
61201;DHT22;47065;52.898;6.992;2023-07-31T08:43:03;16.60;99.90
61201;DHT22;47065;52.898;6.992;2023-07-31T08:45:30;16.60;99.90
61201;DHT22;47065;52.898;6.992;2023-07-31T08:47:56;16.60;99.90
61201;DHT22;47065;52.898;6.992;2023-07-31T08:50:23;16.60;99.90
61201;DHT22;47065;52.898;6.992;2023-07-31T08:52:50;16.60;99.90
61201;DHT22;47065;52.898;6.992;2023-07-31T08:55:16;16.70;99.90
61201;DHT22;47065;52.898;6.992;2023-07-31T08:57:42;16.70;99.90
61201;DHT22;47065;52.898;6.992;2023-07-31T09:00:09;16.70;99.90
61201;DHT22;47065;52.898;6.992;2023-07-31T09:02:46;16.70;99.90
61201;DHT22;47065;52.898;6.992;2023-07-31T09:05:12;16.80;99.90
61201;DHT22;47065;52.898;6.992;2023-07-31T09:07:39;16.80;99.90
61201;DHT22;47065;52.898;6.992;2023-07-31T09:10:06;16.80;99.90
61201;DHT22;47065;52.898;6.992;2023-07-31T09:12:32;16.80;99.90
61201;DHT22;47065;52.898;6.992;2023-07-31T09:14:58;16.90;99.90
61201;DHT22;47065;52.898;6.992;2023-07-31T09:17:31;16.90;99.90
61201;DHT22;47065;52.898;6.992;2023-07-31T09:19:57;17.00;99.90
61201;DHT22;47065;52.898;6.992;2023-07-31T09:22:34;17.00;99.90
61201;DHT22;47065;52.898;6.992;2023-07-31T09:25:19;17.10;99.90
61201;DHT22;47065;52.898;6.992;2023-07-31T09:30:20;17.10;99.90
61201;DHT22;47065;52.898;6.992;2023-07-31T09:32:47;17.20;99.90
61201;DHT22;47065;52.898;6.992;2023-07-31T09:37:55;17.30;99.90
61201;DHT22;47065;52.898;6.992;2023-07-31T09:40:36;17.30;99.90
61201;DHT22;47065;52.898;6.992;2023-07-31T09:43:04;17.40;99.90
61201;DHT22;47065;52.898;6.992;2023-07-31T09:45:37;17.40;99.90
61201;DHT22;47065;52.898;6.992;2023-07-31T09:48:03;17.50;99.90
61201;DHT22;47065;52.898;6.992;2023-07-31T09:50:31;17.50;99.90
61201;DHT22;47065;52.898;6.992;2023-07-31T09:52:57;17.60;99.90
61201;DHT22;47065;52.898;6.992;2023-07-31T09:55:24;17.60;99.90
61201;DHT22;47065;52.898;6.992;2023-07-31T09:57:50;17.60;99.90
61201;DHT22;47065;52.898;6.992;2023-07-31T10:00:17;17.70;99.90
61201;DHT22;47065;52.898;6.992;2023-07-31T10:02:47;17.70;99.90
61201;DHT22;47065;52.898;6.992;2023-07-31T10:05:16;17.70;99.90
61201;DHT22;47065;52.898;6.992;2023-07-31T10:07:45;17.70;99.90
61201;DHT22;47065;52.898;6.992;2023-07-31T10:10:15;17.80;99.90
61201;DHT22;47065;52.898;6.992;2023-07-31T10:12:42;17.80;99.90
61201;DHT22;47065;52.898;6.992;2023-07-31T10:15:09;17.80;99.90
61201;DHT22;47065;52.898;6.992;2023-07-31T10:17:36;17.90;99.90
61201;DHT22;47065;52.898;6.992;2023-07-31T10:20:02;17.90;99.90
61201;DHT22;47065;52.898;6.992;2023-07-31T10:22:31;17.90;99.90
61201;DHT22;47065;52.898;6.992;2023-07-31T10:24:59;17.90;99.90
61201;DHT22;47065;52.898;6.992;2023-07-31T10:27:25;17.90;99.90
61201;DHT22;47065;52.898;6.992;2023-07-31T10:29:52;18.00;99.90
61201;DHT22;47065;52.898;6.992;2023-07-31T10:32:20;18.00;99.90
61201;DHT22;47065;52.898;6.992;2023-07-31T10:34:46;18.10;99.90
61201;DHT22;47065;52.898;6.992;2023-07-31T10:37:27;18.10;99.90
61201;DHT22;47065;52.898;6.992;2023-07-31T10:40:01;18.10;99.90
61201;DHT22;47065;52.898;6.992;2023-07-31T10:42:33;18.10;99.90
61201;DHT22;47065;52.898;6.992;2023-07-31T10:45:10;18.10;99.90
61201;DHT22;47065;52.898;6.992;2023-07-31T10:47:45;18.10;99.90
61201;DHT22;47065;52.898;6.992;2023-07-31T10:50:19;18.10;99.90
61201;DHT22;47065;52.898;6.992;2023-07-31T10:52:53;18.10;99.90
61201;DHT22;47065;52.898;6.992;2023-07-31T10:55:39;18.10;99.90
61201;DHT22;47065;52.898;6.992;2023-07-31T10:58:13;18.20;99.90
61201;DHT22;47065;52.898;6.992;2023-07-31T11:00:40;18.20;99.90
61201;DHT22;47065;52.898;6.992;2023-07-31T11:03:17;18.20;99.90
61201;DHT22;47065;52.898;6.992;2023-07-31T11:05:51;18.30;99.90
61201;DHT22;47065;52.898;6.992;2023-07-31T11:08:21;18.40;99.90
61201;DHT22;47065;52.898;6.992;2023-07-31T11:10:50;18.50;99.90
61201;DHT22;47065;52.898;6.992;2023-07-31T11:13:15;18.60;99.90
61201;DHT22;47065;52.898;6.992;2023-07-31T11:15:41;18.70;99.90
61201;DHT22;47065;52.898;6.992;2023-07-31T11:18:07;18.80;99.90
61201;DHT22;47065;52.898;6.992;2023-07-31T11:20:35;18.80;99.90
61201;DHT22;47065;52.898;6.992;2023-07-31T11:23:11;18.90;99.90
61201;DHT22;47065;52.898;6.992;2023-07-31T11:25:38;18.90;99.90
61201;DHT22;47065;52.898;6.992;2023-07-31T11:28:06;18.90;99.90
61201;DHT22;47065;52.898;6.992;2023-07-31T11:30:33;18.90;99.90
61201;DHT22;47065;52.898;6.992;2023-07-31T11:33:02;18.90;99.90
61201;DHT22;47065;52.898;6.992;2023-07-31T11:35:30;19.00;99.90
61201;DHT22;47065;52.898;6.992;2023-07-31T11:37:56;18.90;99.90
61201;DHT22;47065;52.898;6.992;2023-07-31T11:40:21;19.00;99.90
61201;DHT22;47065;52.898;6.992;2023-07-31T11:42:47;19.10;99.90
61201;DHT22;47065;52.898;6.992;2023-07-31T11:45:13;19.20;99.90
61201;DHT22;47065;52.898;6.992;2023-07-31T11:47:38;19.20;99.90
61201;DHT22;47065;52.898;6.992;2023-07-31T11:50:05;19.20;99.90
61201;DHT22;47065;52.898;6.992;2023-07-31T11:52:37;19.20;99.90
61201;DHT22;47065;52.898;6.992;2023-07-31T11:55:05;19.20;99.90
61201;DHT22;47065;52.898;6.992;2023-07-31T11:57:35;19.20;99.90
61201;DHT22;47065;52.898;6.992;2023-07-31T12:00:01;19.10;99.90
61201;DHT22;47065;52.898;6.992;2023-07-31T12:02:28;19.10;99.90
61201;DHT22;47065;52.898;6.992;2023-07-31T12:04:54;19.10;99.90
61201;DHT22;47065;52.898;6.992;2023-07-31T12:07:20;19.00;99.90
61201;DHT22;47065;52.898;6.992;2023-07-31T12:09:55;19.00;99.90
61201;DHT22;47065;52.898;6.992;2023-07-31T12:12:22;19.00;99.90
61201;DHT22;47065;52.898;6.992;2023-07-31T12:14:48;19.00;99.90
61201;DHT22;47065;52.898;6.992;2023-07-31T12:17:14;19.10;99.90
61201;DHT22;47065;52.898;6.992;2023-07-31T12:19:40;19.00;99.90
61201;DHT22;47065;52.898;6.992;2023-07-31T12:22:14;19.00;99.90
61201;DHT22;47065;52.898;6.992;2023-07-31T12:24:44;19.00;99.90
61201;DHT22;47065;52.898;6.992;2023-07-31T12:27:14;18.90;99.90
61201;DHT22;47065;52.898;6.992;2023-07-31T12:29:41;18.90;99.90
61201;DHT22;47065;52.898;6.992;2023-07-31T12:32:24;18.90;99.90
61201;DHT22;47065;52.898;6.992;2023-07-31T12:34:51;18.80;99.90
61201;DHT22;47065;52.898;6.992;2023-07-31T12:37:17;18.80;99.90
61201;DHT22;47065;52.898;6.992;2023-07-31T12:39:43;18.80;99.90
61201;DHT22;47065;52.898;6.992;2023-07-31T12:42:08;18.80;99.90
61201;DHT22;47065;52.898;6.992;2023-07-31T12:44:34;18.80;99.90
61201;DHT22;47065;52.898;6.992;2023-07-31T12:47:00;18.80;99.90
61201;DHT22;47065;52.898;6.992;2023-07-31T12:49:25;18.90;99.90
61201;DHT22;47065;52.898;6.992;2023-07-31T12:51:52;18.90;99.90
61201;DHT22;47065;52.898;6.992;2023-07-31T12:54:19;18.90;99.90
61201;DHT22;47065;52.898;6.992;2023-07-31T12:56:45;18.90;99.90
61201;DHT22;47065;52.898;6.992;2023-07-31T12:59:10;18.80;99.90
61201;DHT22;47065;52.898;6.992;2023-07-31T13:01:36;18.80;99.90
61201;DHT22;47065;52.898;6.992;2023-07-31T13:04:02;18.70;99.90
61201;DHT22;47065;52.898;6.992;2023-07-31T13:06:27;18.70;99.90
61201;DHT22;47065;52.898;6.992;2023-07-31T13:08:53;18.70;99.90
61201;DHT22;47065;52.898;6.992;2023-07-31T13:11:19;18.70;99.90
61201;DHT22;47065;52.898;6.992;2023-07-31T13:13:44;18.70;99.90
61201;DHT22;47065;52.898;6.992;2023-07-31T13:16:10;18.70;99.90
61201;DHT22;47065;52.898;6.992;2023-07-31T13:18:36;18.70;99.90
61201;DHT22;47065;52.898;6.992;2023-07-31T13:21:01;18.80;99.90
61201;DHT22;47065;52.898;6.992;2023-07-31T13:23:27;18.90;99.90
61201;DHT22;47065;52.898;6.992;2023-07-31T13:25:53;19.00;99.90
61201;DHT22;47065;52.898;6.992;2023-07-31T13:28:18;19.20;99.90
61201;DHT22;47065;52.898;6.992;2023-07-31T13:30:44;19.40;99.90
61201;DHT22;47065;52.898;6.992;2023-07-31T13:33:11;19.60;99.90
61201;DHT22;47065;52.898;6.992;2023-07-31T13:35:37;19.80;99.90
61201;DHT22;47065;52.898;6.992;2023-07-31T13:38:02;19.80;99.90
61201;DHT22;47065;52.898;6.992;2023-07-31T13:40:28;19.80;99.90
61201;DHT22;47065;52.898;6.992;2023-07-31T13:42:53;19.70;99.90
61201;DHT22;47065;52.898;6.992;2023-07-31T13:45:20;19.70;99.90
61201;DHT22;47065;52.898;6.992;2023-07-31T13:47:45;19.60;99.90
61201;DHT22;47065;52.898;6.992;2023-07-31T13:50:11;19.50;99.90
61201;DHT22;47065;52.898;6.992;2023-07-31T13:52:36;19.40;99.90
61201;DHT22;47065;52.898;6.992;2023-07-31T13:55:02;19.40;99.90
61201;DHT22;47065;52.898;6.992;2023-07-31T13:57:28;19.40;99.90
61201;DHT22;47065;52.898;6.992;2023-07-31T13:59:53;19.30;99.90
61201;DHT22;47065;52.898;6.992;2023-07-31T14:02:19;19.40;99.90
61201;DHT22;47065;52.898;6.992;2023-07-31T14:04:45;19.30;99.90
61201;DHT22;47065;52.898;6.992;2023-07-31T14:07:10;19.30;99.90
61201;DHT22;47065;52.898;6.992;2023-07-31T14:09:36;19.30;99.90
61201;DHT22;47065;52.898;6.992;2023-07-31T14:12:02;19.30;99.90
61201;DHT22;47065;52.898;6.992;2023-07-31T14:14:28;19.20;99.90
61201;DHT22;47065;52.898;6.992;2023-07-31T14:16:53;19.20;99.90
61201;DHT22;47065;52.898;6.992;2023-07-31T14:19:19;19.20;99.90
61201;DHT22;47065;52.898;6.992;2023-07-31T14:21:45;19.20;99.90
61201;DHT22;47065;52.898;6.992;2023-07-31T14:24:11;19.30;99.90
61201;DHT22;47065;52.898;6.992;2023-07-31T14:26:37;19.30;99.90
61201;DHT22;47065;52.898;6.992;2023-07-31T14:29:02;19.20;99.90
61201;DHT22;47065;52.898;6.992;2023-07-31T14:31:28;19.20;99.90
61201;DHT22;47065;52.898;6.992;2023-07-31T14:33:53;19.20;99.90
61201;DHT22;47065;52.898;6.992;2023-07-31T14:36:19;19.20;99.90
61201;DHT22;47065;52.898;6.992;2023-07-31T14:38:45;19.20;99.90
61201;DHT22;47065;52.898;6.992;2023-07-31T14:41:10;19.20;99.90
61201;DHT22;47065;52.898;6.992;2023-07-31T14:43:36;19.20;99.90
61201;DHT22;47065;52.898;6.992;2023-07-31T14:46:02;19.20;99.90
61201;DHT22;47065;52.898;6.992;2023-07-31T14:48:27;19.20;99.90
61201;DHT22;47065;52.898;6.992;2023-07-31T14:50:54;19.20;99.90
61201;DHT22;47065;52.898;6.992;2023-07-31T14:53:21;19.30;99.90
61201;DHT22;47065;52.898;6.992;2023-07-31T14:55:47;19.30;99.90
61201;DHT22;47065;52.898;6.992;2023-07-31T14:58:12;19.30;99.90
61201;DHT22;47065;52.898;6.992;2023-07-31T15:00:39;19.30;99.90
61201;DHT22;47065;52.898;6.992;2023-07-31T15:03:04;19.40;99.90
61201;DHT22;47065;52.898;6.992;2023-07-31T15:05:30;19.30;99.90
61201;DHT22;47065;52.898;6.992;2023-07-31T15:07:56;19.40;99.90
61201;DHT22;47065;52.898;6.992;2023-07-31T15:10:22;19.40;99.90
61201;DHT22;47065;52.898;6.992;2023-07-31T15:12:47;19.40;99.90
61201;DHT22;47065;52.898;6.992;2023-07-31T15:15:14;19.40;99.90
61201;DHT22;47065;52.898;6.992;2023-07-31T15:17:40;19.40;99.90
61201;DHT22;47065;52.898;6.992;2023-07-31T15:20:06;19.40;99.90
61201;DHT22;47065;52.898;6.992;2023-07-31T15:22:32;19.40;99.90
61201;DHT22;47065;52.898;6.992;2023-07-31T15:24:58;19.40;99.90
61201;DHT22;47065;52.898;6.992;2023-07-31T15:27:23;19.40;99.90
61201;DHT22;47065;52.898;6.992;2023-07-31T15:29:52;19.40;99.90
61201;DHT22;47065;52.898;6.992;2023-07-31T15:32:18;19.40;99.90
61201;DHT22;47065;52.898;6.992;2023-07-31T15:34:44;19.40;99.90
61201;DHT22;47065;52.898;6.992;2023-07-31T15:37:10;19.40;99.90